Time;durP1;ratioP1;P1;durP2;ratioP2;P2;SDS_P1;SDS_P2;PMS_P1;PMS_P2;Temp;Humidity;BMP_temperature;BMP_pressure;BME280_temperature;BME280_humidity;BME280_pressure;Samples;Min_cycle;Max_cycle;Signal;HPM_P1;HPM_P2
2021/09/07 00:01:03;;;;;;;1.73;1.40;;;11.90;99.90;;;;;;4993437;28;20116;-71
2021/09/07 00:03:31;;;;;;;4.30;2.30;;;11.90;99.90;;;;;;4992532;28;20125;-67
2021/09/07 00:05:58;;;;;;;2.15;1.65;;;11.90;99.90;;;;;;4993456;28;20472;-71
2021/09/07 00:08:25;;;;;;;3.80;2.20;;;11.80;99.90;;;;;;4991879;28;20476;-71
2021/09/07 00:10:52;;;;;;;2.80;2.38;;;11.80;99.90;;;;;;4993228;28;20133;-70
2021/09/07 00:13:20;;;;;;;3.13;2.45;;;11.70;99.90;;;;;;4993347;28;20077;-72
2021/09/07 00:15:48;;;;;;;2.15;1.83;;;11.70;99.90;;;;;;4993337;28;20050;-71
2021/09/07 00:18:15;;;;;;;2.95;2.42;;;11.70;99.90;;;;;;4991683;28;20051;-74
2021/09/07 00:20:42;;;;;;;4.05;2.40;;;11.60;99.90;;;;;;4992936;28;20104;-66
2021/09/07 00:23:09;;;;;;;3.47;2.05;;;11.60;99.90;;;;;;4992721;28;20070;-74
2021/09/07 00:25:36;;;;;;;2.95;1.90;;;11.60;99.90;;;;;;4992899;28;20050;-70
2021/09/07 00:28:03;;;;;;;2.42;2.22;;;11.60;99.90;;;;;;4993172;28;20077;-68
2021/09/07 00:30:30;;;;;;;3.85;2.10;;;11.60;99.90;;;;;;4991372;28;20058;-70
2021/09/07 00:32:57;;;;;;;2.65;1.67;;;11.50;99.90;;;;;;4992774;28;20081;-66
2021/09/07 00:35:24;;;;;;;4.05;2.00;;;11.50;99.90;;;;;;4992510;28;20050;-67
2021/09/07 00:37:52;;;;;;;3.30;2.38;;;11.50;99.90;;;;;;4992541;28;20061;-70
2021/09/07 00:40:19;;;;;;;3.03;2.20;;;11.50;99.90;;;;;;4990876;28;20475;-66
2021/09/07 00:42:45;;;;;;;5.40;2.28;;;11.50;99.90;;;;;;4992376;28;20073;-72
2021/09/07 00:45:12;;;;;;;2.08;1.55;;;11.40;99.90;;;;;;4992512;28;20049;-70
2021/09/07 00:47:41;;;;;;;2.65;2.45;;;11.40;99.90;;;;;;4992577;28;20073;-70
2021/09/07 00:50:08;;;;;;;3.80;2.30;;;11.40;99.90;;;;;;4992645;28;20070;-72
2021/09/07 00:52:37;;;;;;;3.00;2.08;;;11.40;99.90;;;;;;4991000;28;20046;-76
2021/09/07 00:55:04;;;;;;;3.70;2.30;;;11.30;99.90;;;;;;4992502;28;20486;-67
2021/09/07 00:57:33;;;;;;;4.35;2.72;;;11.30;99.90;;;;;;4992460;28;20060;-68
2021/09/07 01:00:04;;;;;;;2.53;1.80;;;11.30;99.90;;;;;;4992530;28;20074;-69
2021/09/07 01:02:32;;;;;;;2.38;1.77;;;11.30;99.90;;;;;;4989841;28;20369;-75
2021/09/07 01:04:59;;;;;;;4.40;1.90;;;11.30;99.90;;;;;;4992163;28;20089;-69
2021/09/07 01:07:26;;;;;;;4.20;2.33;;;11.30;99.90;;;;;;4991996;28;20076;-66
2021/09/07 01:09:54;;;;;;;2.28;2.08;;;11.20;99.90;;;;;;4992122;28;20086;-69
2021/09/07 01:12:21;;;;;;;2.03;1.83;;;11.20;99.90;;;;;;4989054;28;20050;-70
2021/09/07 01:14:49;;;;;;;2.33;1.98;;;11.20;99.90;;;;;;4991298;28;20061;-72
2021/09/07 01:17:19;;;;;;;2.58;2.38;;;11.20;99.90;;;;;;4991630;28;20494;-67
2021/09/07 01:19:49;;;;;;;3.25;1.83;;;11.20;99.90;;;;;;4991860;28;20081;-71
2021/09/07 01:22:19;;;;;;;5.47;2.72;;;11.20;99.90;;;;;;4990304;28;20054;-71
2021/09/07 01:24:47;;;;;;;3.28;2.38;;;11.10;99.90;;;;;;4991646;28;20097;-67
2021/09/07 01:27:14;;;;;;;5.13;2.67;;;11.10;99.90;;;;;;4991611;28;20073;-74
2021/09/07 01:29:43;;;;;;;3.55;2.72;;;11.10;99.90;;;;;;4991593;28;20043;-77
2021/09/07 01:32:11;;;;;;;4.63;3.20;;;11.10;99.90;;;;;;4991171;28;20137;-70
2021/09/07 01:34:40;;;;;;;3.67;2.72;;;11.20;99.90;;;;;;4989402;28;20043;-69
2021/09/07 01:37:07;;;;;;;4.22;2.88;;;11.10;99.90;;;;;;4991237;28;20043;-69
2021/09/07 01:39:36;;;;;;;3.00;2.70;;;11.10;99.90;;;;;;4991194;28;20070;-70
2021/09/07 01:42:05;;;;;;;3.90;2.40;;;11.10;99.90;;;;;;4991327;28;20050;-73
2021/09/07 01:44:32;;;;;;;4.63;3.42;;;11.10;99.90;;;;;;4989562;28;20047;-71
2021/09/07 01:47:00;;;;;;;3.20;2.22;;;11.10;99.90;;;;;;4990830;28;20077;-71
2021/09/07 01:49:27;;;;;;;4.55;3.75;;;11.10;99.90;;;;;;4991167;28;20112;-68
2021/09/07 01:51:54;;;;;;;3.45;2.53;;;11.10;99.90;;;;;;4991310;28;20125;-70
2021/09/07 01:54:21;;;;;;;5.35;2.38;;;11.10;99.90;;;;;;4989709;28;20168;-71
2021/09/07 01:56:49;;;;;;;3.42;2.58;;;11.10;99.90;;;;;;4983058;28;20050;-71
2021/09/07 01:59:17;;;;;;;4.55;2.97;;;11.00;99.90;;;;;;4990718;28;20050;-71
2021/09/07 02:01:45;;;;;;;3.10;2.80;;;11.00;99.90;;;;;;4990955;28;20054;-69
2021/09/07 02:04:12;;;;;;;2.80;2.38;;;11.00;99.90;;;;;;4990814;28;20137;-75
2021/09/07 02:06:39;;;;;;;6.47;2.80;;;11.00;99.90;;;;;;4989350;28;20125;-72
2021/09/07 02:09:08;;;;;;;4.78;2.83;;;11.00;99.90;;;;;;4990788;28;20054;-74
2021/09/07 02:11:35;;;;;;;2.67;2.22;;;11.00;99.90;;;;;;4990678;28;20368;-67
2021/09/07 02:14:03;;;;;;;3.40;2.72;;;11.00;99.90;;;;;;4990701;28;20058;-66
2021/09/07 02:16:30;;;;;;;4.65;2.63;;;11.00;99.90;;;;;;4989168;28;20054;-66
2021/09/07 02:18:59;;;;;;;9.02;3.75;;;11.00;99.90;;;;;;4973735;28;20050;-69
2021/09/07 02:21:27;;;;;;;3.67;3.38;;;11.00;99.90;;;;;;4990785;28;20050;-71
2021/09/07 02:23:55;;;;;;;5.40;3.00;;;11.00;99.90;;;;;;4989350;28;20481;-70
2021/09/07 02:26:24;;;;;;;3.00;2.67;;;11.00;99.90;;;;;;4989040;28;20481;-68
2021/09/07 02:28:51;;;;;;;3.70;2.80;;;11.10;99.90;;;;;;4990934;28;20137;-69
2021/09/07 02:31:18;;;;;;;2.95;2.63;;;11.20;99.90;;;;;;4990447;28;20453;-69
2021/09/07 02:33:49;;;;;;;4.22;3.00;;;11.20;99.90;;;;;;4991092;28;20072;-68
2021/09/07 02:36:20;;;;;;;4.28;3.47;;;11.20;99.90;;;;;;4988965;28;20073;-70
2021/09/07 02:38:47;;;;;;;4.38;2.45;;;11.20;99.90;;;;;;4990359;28;20101;-72
2021/09/07 02:41:14;;;;;;;3.33;2.70;;;11.30;99.90;;;;;;4990458;28;20047;-72
2021/09/07 02:43:41;;;;;;;2.97;2.50;;;11.30;99.90;;;;;;4990527;28;20109;-69
2021/09/07 02:46:08;;;;;;;2.92;2.45;;;11.30;99.90;;;;;;4990770;28;20472;-73
2021/09/07 02:48:35;;;;;;;5.72;3.38;;;11.30;99.90;;;;;;4989159;28;20046;-73
2021/09/07 02:51:03;;;;;;;5.63;3.47;;;11.40;99.90;;;;;;4990478;28;20149;-70
2021/09/07 02:53:31;;;;;;;3.65;3.00;;;11.40;99.90;;;;;;4990559;28;20124;-69
2021/09/07 02:55:59;;;;;;;5.40;3.15;;;11.40;99.90;;;;;;4990841;28;20050;-66
2021/09/07 02:58:27;;;;;;;2.63;2.42;;;11.40;99.90;;;;;;4972020;28;20146;-67
2021/09/07 03:00:55;;;;;;;4.43;2.67;;;11.40;99.90;;;;;;4990782;28;20109;-70
2021/09/07 03:03:24;;;;;;;4.63;2.80;;;11.40;99.90;;;;;;4989877;28;20054;-68
2021/09/07 03:05:52;;;;;;;3.85;2.83;;;11.30;99.90;;;;;;4990572;28;20156;-69
2021/09/07 03:08:20;;;;;;;4.70;3.15;;;11.30;99.90;;;;;;4988858;28;20319;-72
2021/09/07 03:10:49;;;;;;;3.42;2.67;;;11.30;99.90;;;;;;4982352;28;20462;-69
2021/09/07 03:13:16;;;;;;;3.38;2.50;;;11.30;99.90;;;;;;4990355;28;20120;-67
2021/09/07 03:15:43;;;;;;;3.72;2.67;;;11.30;99.90;;;;;;4990236;28;20057;-69
2021/09/07 03:18:10;;;;;;;2.83;2.53;;;11.20;99.90;;;;;;4990290;28;20467;-68
2021/09/07 03:20:37;;;;;;;7.40;2.63;;;11.20;99.90;;;;;;4988957;28;20420;-69
2021/09/07 03:23:04;;;;;;;4.35;2.75;;;11.20;99.90;;;;;;4990372;28;20073;-70
2021/09/07 03:25:32;;;;;;;5.88;3.15;;;11.20;99.90;;;;;;4990124;28;20056;-76
2021/09/07 03:27:59;;;;;;;3.17;2.75;;;11.20;99.90;;;;;;4990283;28;20054;-71
2021/09/07 03:30:27;;;;;;;3.70;3.25;;;11.20;99.90;;;;;;4988662;28;20047;-68
2021/09/07 03:32:55;;;;;;;5.28;2.67;;;11.20;99.90;;;;;;4990374;28;20051;-69
2021/09/07 03:35:22;;;;;;;4.25;3.38;;;11.30;99.90;;;;;;4990336;28;20085;-69
2021/09/07 03:37:49;;;;;;;3.97;3.25;;;11.30;99.90;;;;;;4991093;28;20050;-69
2021/09/07 03:40:16;;;;;;;5.30;3.22;;;11.30;99.90;;;;;;4992663;28;20445;-68
2021/09/07 03:42:43;;;;;;;4.90;3.30;;;11.30;99.90;;;;;;4993708;28;20381;-67
2021/09/07 03:45:12;;;;;;;3.83;3.42;;;11.30;99.90;;;;;;4993647;28;20077;-70
2021/09/07 03:47:40;;;;;;;7.32;3.70;;;11.40;99.90;;;;;;4993986;28;20142;-73
2021/09/07 03:50:09;;;;;;;4.20;3.17;;;11.40;99.90;;;;;;4994354;28;20042;-68
2021/09/07 03:52:36;;;;;;;4.70;4.07;;;11.50;99.90;;;;;;4992192;28;20075;-67
2021/09/07 03:55:04;;;;;;;4.18;3.78;;;11.50;99.90;;;;;;4993417;28;20178;-73
2021/09/07 03:57:32;;;;;;;5.13;3.85;;;11.60;99.90;;;;;;4993295;28;20050;-66
2021/09/07 04:00:00;;;;;;;4.15;3.25;;;11.60;99.90;;;;;;4993480;28;20472;-69
2021/09/07 04:02:27;;;;;;;5.07;4.43;;;11.60;99.90;;;;;;4991806;28;20464;-66
2021/09/07 04:04:54;;;;;;;4.13;3.75;;;11.60;99.90;;;;;;4993233;28;20050;-69
2021/09/07 04:07:21;;;;;;;3.42;2.83;;;11.70;99.90;;;;;;4992957;28;20416;-73
2021/09/07 04:09:49;;;;;;;5.10;3.63;;;11.70;99.90;;;;;;4993378;28;20050;-71
2021/09/07 04:12:16;;;;;;;6.72;3.42;;;11.80;99.90;;;;;;4991307;28;20073;-67
2021/09/07 04:14:43;;;;;;;3.50;2.90;;;11.80;99.90;;;;;;4993054;28;20057;-70
2021/09/07 04:17:10;;;;;;;3.28;2.58;;;11.80;99.90;;;;;;4993284;28;20051;-67
2021/09/07 04:19:38;;;;;;;5.97;4.75;;;11.90;99.90;;;;;;4992907;28;20054;-69
2021/09/07 04:22:05;;;;;;;3.67;3.38;;;11.90;99.90;;;;;;4993185;28;20124;-68
2021/09/07 04:24:32;;;;;;;4.28;3.80;;;12.00;99.90;;;;;;4991254;28;20042;-72
2021/09/07 04:26:59;;;;;;;3.65;2.90;;;12.00;99.90;;;;;;4993279;28;20137;-67
2021/09/07 04:29:26;;;;;;;4.43;3.78;;;12.00;99.90;;;;;;4992884;28;20046;-72
2021/09/07 04:31:53;;;;;;;4.22;3.72;;;12.00;99.90;;;;;;4992869;28;20404;-73
2021/09/07 04:34:20;;;;;;;6.57;3.67;;;12.00;99.90;;;;;;4991435;28;20503;-72
2021/09/07 04:36:47;;;;;;;4.38;3.20;;;12.00;99.90;;;;;;4992918;28;20073;-67
2021/09/07 04:39:14;;;;;;;4.07;3.33;;;11.90;99.90;;;;;;4992879;28;20050;-73
2021/09/07 04:41:41;;;;;;;4.95;3.53;;;11.90;99.90;;;;;;4992537;28;20073;-70
2021/09/07 04:44:10;;;;;;;5.03;3.30;;;11.80;99.90;;;;;;4992830;28;20050;-71
2021/09/07 04:46:37;;;;;;;5.57;3.42;;;11.80;99.90;;;;;;4990876;28;20070;-71
2021/09/07 04:49:04;;;;;;;4.05;2.72;;;11.80;99.90;;;;;;4991866;28;20080;-69
2021/09/07 04:51:30;;;;;;;3.92;2.97;;;11.70;99.90;;;;;;4992142;28;20054;-72
2021/09/07 04:54:00;;;;;;;6.93;3.45;;;11.70;99.90;;;;;;4992479;28;20050;-67
2021/09/07 04:56:26;;;;;;;5.78;3.88;;;11.70;99.90;;;;;;4991170;28;20046;-67
2021/09/07 04:58:53;;;;;;;4.32;3.65;;;11.60;99.90;;;;;;4992059;28;20130;-74
2021/09/07 05:01:20;;;;;;;4.80;3.35;;;11.70;99.90;;;;;;4992722;28;20105;-73
2021/09/07 05:03:48;;;;;;;6.70;4.03;;;11.60;99.90;;;;;;4992149;28;20096;-69
2021/09/07 05:06:15;;;;;;;5.75;3.83;;;11.60;99.90;;;;;;4990351;28;20046;-67
2021/09/07 05:08:42;;;;;;;6.70;3.45;;;11.70;99.90;;;;;;4992266;28;20125;-72
2021/09/07 05:11:09;;;;;;;7.47;3.67;;;11.70;99.90;;;;;;4992400;28;20203;-70
2021/09/07 05:13:36;;;;;;;8.07;3.60;;;11.70;99.90;;;;;;4992121;28;20050;-75
2021/09/07 05:16:03;;;;;;;4.70;3.13;;;11.70;99.90;;;;;;4992037;28;20046;-69
2021/09/07 05:18:31;;;;;;;4.38;2.67;;;11.80;99.90;;;;;;4990567;28;20054;-67
2021/09/07 05:20:59;;;;;;;7.93;3.88;;;11.80;99.90;;;;;;4992560;28;20084;-67
2021/09/07 05:23:25;;;;;;;6.95;3.55;;;11.90;99.90;;;;;;4975873;28;20461;-70
2021/09/07 05:25:52;;;;;;;3.90;2.92;;;11.90;99.90;;;;;;4991961;28;20440;-71
2021/09/07 05:28:19;;;;;;;7.45;3.72;;;12.00;99.90;;;;;;4990235;28;20085;-67
2021/09/07 05:30:54;;;;;;;7.20;4.05;;;12.00;99.90;;;;;;4984428;28;20495;-71
2021/09/07 05:33:22;;;;;;;6.55;3.03;;;12.10;99.90;;;;;;4992165;28;20053;-73
2021/09/07 05:35:49;;;;;;;8.00;4.57;;;12.20;99.90;;;;;;4991915;28;20370;-68
2021/09/07 05:38:16;;;;;;;5.70;4.38;;;12.30;99.90;;;;;;4989921;28;20077;-68
2021/09/07 05:40:43;;;;;;;5.30;3.13;;;12.50;99.90;;;;;;4991374;28;20065;-71
2021/09/07 05:43:10;;;;;;;5.00;4.18;;;12.50;99.90;;;;;;4991098;28;20066;-67
2021/09/07 05:45:37;;;;;;;5.75;3.40;;;12.60;99.90;;;;;;4990563;28;20054;-72
2021/09/07 05:48:04;;;;;;;3.50;3.20;;;12.70;99.90;;;;;;4990880;28;20057;-68
2021/09/07 05:50:31;;;;;;;5.32;3.13;;;12.80;99.90;;;;;;4989725;28;20070;-73
2021/09/07 05:52:58;;;;;;;4.70;3.53;;;12.80;99.90;;;;;;4990760;28;20481;-65
2021/09/07 05:55:25;;;;;;;4.97;3.47;;;12.90;99.90;;;;;;4990997;28;20054;-68
2021/09/07 05:57:54;;;;;;;3.70;2.97;;;13.00;99.90;;;;;;4991126;28;20070;-69
2021/09/07 06:00:21;;;;;;;6.07;3.05;;;13.10;99.90;;;;;;4989800;28;20531;-66
2021/09/07 06:02:51;;;;;;;4.20;3.15;;;13.10;99.90;;;;;;4991192;28;20089;-67
2021/09/07 06:05:19;;;;;;;7.60;3.92;;;13.20;99.90;;;;;;4991258;28;20051;-68
2021/09/07 06:07:45;;;;;;;3.15;2.70;;;13.30;99.90;;;;;;4990950;28;20062;-71
2021/09/07 06:10:13;;;;;;;5.80;3.08;;;13.30;99.90;;;;;;4991424;28;20093;-67
2021/09/07 06:12:40;;;;;;;4.13;3.72;;;13.40;99.90;;;;;;4989279;28;20461;-72
2021/09/07 06:15:08;;;;;;;3.35;3.05;;;13.50;99.90;;;;;;4991059;28;20073;-72
2021/09/07 06:17:35;;;;;;;4.25;3.38;;;13.50;99.90;;;;;;4991084;28;20492;-69
2021/09/07 06:20:03;;;;;;;3.78;3.22;;;13.60;99.90;;;;;;4990978;28;20054;-69
2021/09/07 06:22:31;;;;;;;4.70;3.22;;;13.60;99.90;;;;;;4989418;28;20081;-75
2021/09/07 06:24:57;;;;;;;9.15;4.43;;;13.70;99.90;;;;;;4990499;28;20066;-68
2021/09/07 06:27:24;;;;;;;4.35;3.45;;;13.80;99.90;;;;;;4990852;28;20485;-66
2021/09/07 06:29:51;;;;;;;5.55;3.20;;;13.80;99.90;;;;;;4990922;28;20112;-69
2021/09/07 06:32:18;;;;;;;3.95;3.08;;;13.90;99.90;;;;;;4989450;28;20500;-68
2021/09/07 06:34:45;;;;;;;2.83;2.50;;;14.00;99.90;;;;;;4990743;28;20046;-72
2021/09/07 06:37:12;;;;;;;5.45;3.70;;;14.00;99.90;;;;;;4990285;28;20050;-75
2021/09/07 06:39:39;;;;;;;4.00;2.78;;;14.10;99.90;;;;;;4990497;28;20121;-67
2021/09/07 06:42:06;;;;;;;3.97;3.28;;;14.20;99.90;;;;;;4990789;28;20085;-69
2021/09/07 06:44:33;;;;;;;4.50;2.40;;;14.20;99.90;;;;;;4989077;28;20082;-77
2021/09/07 06:47:01;;;;;;;5.35;3.30;;;14.20;99.90;;;;;;4990568;28;20047;-67
2021/09/07 06:49:28;;;;;;;5.25;3.17;;;14.30;99.90;;;;;;4990568;28;20054;-66
2021/09/07 06:52:00;;;;;;;3.22;2.67;;;14.30;99.90;;;;;;4990565;28;20097;-66
2021/09/07 06:54:27;;;;;;;4.22;2.45;;;14.30;99.90;;;;;;4989006;28;20042;-75
2021/09/07 06:56:54;;;;;;;3.25;2.92;;;14.40;99.90;;;;;;4990687;28;20404;-69
2021/09/07 06:59:21;;;;;;;3.17;2.60;;;14.40;99.90;;;;;;4989327;28;20054;-70
2021/09/07 07:01:48;;;;;;;3.28;2.97;;;14.50;99.90;;;;;;4990691;28;20369;-71
2021/09/07 07:04:15;;;;;;;3.08;2.50;;;14.60;99.90;;;;;;4988436;28;20047;-72
2021/09/07 07:06:42;;;;;;;3.55;3.00;;;14.60;99.90;;;;;;4990194;28;20110;-70
2021/09/07 07:09:09;;;;;;;2.45;2.20;;;14.70;99.90;;;;;;4990401;28;20058;-72
2021/09/07 07:11:36;;;;;;;4.40;2.40;;;14.80;99.90;;;;;;4990755;28;20054;-71
2021/09/07 07:14:03;;;;;;;3.85;2.45;;;14.90;99.90;;;;;;4993367;28;20057;-68
2021/09/07 07:16:30;;;;;;;5.05;4.55;;;15.00;99.90;;;;;;4992323;28;20108;-76
2021/09/07 07:18:57;;;;;;;3.22;2.67;;;15.00;99.90;;;;;;4994145;28;20077;-70
2021/09/07 07:21:24;;;;;;;3.88;2.88;;;15.00;99.90;;;;;;4994308;28;20046;-73
2021/09/07 07:23:51;;;;;;;3.63;2.72;;;15.00;99.90;;;;;;4994407;28;20108;-69
2021/09/07 07:26:17;;;;;;;2.15;1.95;;;15.10;99.90;;;;;;4992534;28;20188;-67
2021/09/07 07:28:44;;;;;;;3.13;2.45;;;15.20;99.90;;;;;;4994147;28;20054;-68
2021/09/07 07:31:11;;;;;;;4.30;2.63;;;15.20;99.90;;;;;;4993970;28;20052;-70
2021/09/07 07:33:38;;;;;;;2.03;1.85;;;15.30;99.90;;;;;;4993989;28;20120;-71
2021/09/07 07:36:05;;;;;;;2.22;2.03;;;15.40;99.90;;;;;;4993074;28;20093;-67
2021/09/07 07:38:32;;;;;;;2.38;2.15;;;15.50;99.90;;;;;;4992274;28;20073;-75
2021/09/07 07:41:01;;;;;;;4.13;2.47;;;15.60;99.90;;;;;;4994191;28;20073;-70
2021/09/07 07:43:33;;;;;;;2.20;2.00;;;15.70;99.90;;;;;;4994086;28;20043;-68
2021/09/07 07:46:00;;;;;;;3.40;3.10;;;15.80;99.90;;;;;;4993957;28;20046;-66
2021/09/07 07:48:27;;;;;;;4.75;2.78;;;15.90;99.90;;;;;;4991843;28;20112;-72
2021/09/07 07:50:54;;;;;;;4.65;3.55;;;15.80;99.90;;;;;;4993658;28;20194;-70
2021/09/07 07:53:21;;;;;;;5.05;2.58;;;15.80;99.90;;;;;;4993343;28;20074;-70
2021/09/07 07:55:48;;;;;;;2.45;2.25;;;15.80;99.90;;;;;;4993668;28;20477;-70
2021/09/07 07:58:23;;;;;;;5.38;2.55;;;15.90;99.90;;;;;;4992001;28;20050;-75
2021/09/07 08:00:50;;;;;;;4.93;2.75;;;15.80;99.90;;;;;;4993595;28;20552;-66
2021/09/07 08:03:17;;;;;;;2.58;2.35;;;15.70;99.90;;;;;;4993501;28;20058;-67
2021/09/07 08:05:45;;;;;;;4.20;2.35;;;15.70;99.90;;;;;;4993533;28;20127;-69
2021/09/07 08:08:12;;;;;;;2.65;2.45;;;15.60;99.90;;;;;;4993167;28;20066;-72
2021/09/07 08:10:39;;;;;;;3.35;2.25;;;15.70;99.90;;;;;;4991481;28;20421;-70
2021/09/07 08:13:07;;;;;;;5.80;2.88;;;15.70;99.90;;;;;;4993267;28;20068;-72
2021/09/07 08:15:34;;;;;;;5.15;3.40;;;15.70;99.90;;;;;;4993320;28;20437;-70
2021/09/07 08:18:01;;;;;;;3.92;3.00;;;15.80;99.90;;;;;;4992954;28;20046;-70
2021/09/07 08:20:30;;;;;;;9.98;3.72;;;15.80;99.90;;;;;;4990267;28;20066;-71
2021/09/07 08:23:02;;;;;;;3.95;3.53;;;15.70;99.90;;;;;;4992439;28;20480;-66
2021/09/07 08:25:29;;;;;;;5.47;3.55;;;15.70;99.90;;;;;;4992870;28;20046;-68
2021/09/07 08:27:56;;;;;;;6.35;2.78;;;15.70;99.90;;;;;;4992887;28;20076;-69
2021/09/07 08:30:23;;;;;;;5.65;2.83;;;15.70;99.90;;;;;;4991070;28;20112;-70
2021/09/07 08:32:52;;;;;;;7.05;3.58;;;15.80;99.90;;;;;;4992298;28;20146;-66
2021/09/07 08:35:19;;;;;;;5.32;3.03;;;15.80;99.90;;;;;;4992519;28;20054;-69
2021/09/07 08:37:46;;;;;;;4.32;3.80;;;15.80;99.90;;;;;;4992892;28;20492;-67
2021/09/07 08:40:12;;;;;;;7.00;3.50;;;15.80;99.90;;;;;;4992690;28;20125;-76
2021/09/07 08:42:40;;;;;;;4.03;3.63;;;15.80;99.90;;;;;;4991501;28;20046;-69
2021/09/07 08:45:11;;;;;;;6.90;3.78;;;15.80;99.90;;;;;;4992587;28;20046;-72
2021/09/07 08:47:39;;;;;;;4.53;3.47;;;15.70;99.90;;;;;;4992482;28;20043;-71
2021/09/07 08:50:06;;;;;;;4.72;2.92;;;15.80;99.90;;;;;;4992614;28;20121;-68
2021/09/07 08:52:34;;;;;;;3.42;3.10;;;15.80;99.90;;;;;;4990251;28;20147;-71
2021/09/07 08:55:03;;;;;;;7.45;3.63;;;15.80;99.90;;;;;;4992255;28;20090;-68
2021/09/07 08:57:30;;;;;;;4.07;2.38;;;15.80;99.90;;;;;;4991877;28;20129;-68
2021/09/07 08:59:59;;;;;;;3.65;3.05;;;15.80;99.90;;;;;;4991966;28;20100;-73
2021/09/07 09:02:27;;;;;;;4.55;3.95;;;15.80;99.90;;;;;;4989851;28;20050;-70
2021/09/07 09:04:57;;;;;;;6.60;3.58;;;15.90;99.90;;;;;;4992364;28;20061;-68
2021/09/07 09:07:29;;;;;;;4.85;3.30;;;16.00;99.90;;;;;;4991118;28;20081;-73
2021/09/07 09:09:58;;;;;;;5.40;3.17;;;16.00;99.90;;;;;;4991501;28;20070;-77
2021/09/07 09:12:28;;;;;;;4.80;3.38;;;16.10;99.90;;;;;;4989773;28;20058;-66
2021/09/07 09:14:56;;;;;;;3.63;3.20;;;16.20;99.90;;;;;;4991376;28;20420;-72
2021/09/07 09:17:31;;;;;;;3.30;2.97;;;16.20;99.90;;;;;;4991413;28;20576;-69
2021/09/07 09:20:06;;;;;;;5.97;3.72;;;16.30;99.90;;;;;;4991449;28;20543;-70
2021/09/07 09:22:39;;;;;;;3.53;2.40;;;16.40;99.90;;;;;;4990164;28;20141;-69
2021/09/07 09:25:22;;;;;;;3.75;3.20;;;16.30;99.90;;;;;;4992077;28;20133;-68
2021/09/07 09:27:56;;;;;;;3.38;3.08;;;16.40;99.90;;;;;;4992123;28;20221;-67
2021/09/07 09:30:28;;;;;;;4.95;3.10;;;16.40;99.90;;;;;;4989830;28;20385;-70
2021/09/07 09:32:58;;;;;;;3.60;3.00;;;16.40;99.90;;;;;;4991186;28;20093;-67
2021/09/07 09:35:25;;;;;;;;;;;16.40;99.90;;;;;;4991231;28;20073;-70
2021/09/07 09:37:56;;;;;;;4.78;3.63;;;16.40;99.90;;;;;;4991287;28;19972;-70
2021/09/07 09:40:23;;;;;;;;;;;16.40;99.90;;;;;;4989871;28;20145;-72
2021/09/07 09:42:50;;;;;;;4.30;3.28;;;16.50;99.90;;;;;;4991300;28;20051;-69
2021/09/07 09:45:18;;;;;;;4.65;4.10;;;16.50;99.90;;;;;;4990904;28;20124;-71
2021/09/07 09:47:53;;;;;;;5.80;3.28;;;16.50;99.90;;;;;;4990621;28;20217;-70
2021/09/07 09:50:20;;;;;;;3.53;3.22;;;16.60;99.90;;;;;;4989127;28;20085;-68
2021/09/07 09:52:48;;;;;;;3.50;3.20;;;16.60;99.90;;;;;;4990624;28;20074;-68
2021/09/07 09:55:17;;;;;;;6.25;3.80;;;16.60;99.90;;;;;;4990396;28;20077;-70
2021/09/07 09:57:45;;;;;;;6.65;2.92;;;16.70;99.90;;;;;;4990903;28;20161;-67
2021/09/07 10:00:14;;;;;;;5.55;3.42;;;16.70;99.90;;;;;;4992101;28;20062;-71
2021/09/07 10:02:43;;;;;;;5.30;4.35;;;16.80;99.90;;;;;;4989602;28;20441;-71
2021/09/07 10:05:12;;;;;;;6.10;3.17;;;16.80;99.90;;;;;;4990839;28;20050;-67
2021/09/07 10:07:54;;;;;;;5.95;3.63;;;16.70;99.90;;;;;;4991132;28;20049;-69
2021/09/07 10:10:21;;;;;;;5.40;3.40;;;16.80;99.90;;;;;;4989256;28;20362;-69
2021/09/07 10:12:56;;;;;;;4.15;3.70;;;16.80;99.90;;;;;;4990240;28;20487;-69
2021/09/07 10:23:51;;;;;;;6.97;4.63;;;17.00;99.90;;;;;;4990976;28;20065;-67
2021/09/07 10:26:38;;;;;;;4.25;3.42;;;16.90;99.90;;;;;;4988854;28;20177;-67
2021/09/07 10:29:07;;;;;;;5.78;3.72;;;17.00;99.90;;;;;;4984407;28;20105;-68
2021/09/07 10:31:47;;;;;;;5.07;4.05;;;17.00;99.90;;;;;;4990196;28;20070;-68
2021/09/07 10:34:25;;;;;;;12.40;4.20;;;16.90;99.90;;;;;;4988703;28;20039;-66
2021/09/07 10:37:08;;;;;;;3.88;3.05;;;16.90;99.90;;;;;;4990200;28;20096;-67
2021/09/07 10:39:36;;;;;;;4.55;3.63;;;16.90;99.90;;;;;;4991250;28;20597;-65
2021/09/07 10:42:04;;;;;;;3.97;3.30;;;16.90;99.90;;;;;;4990454;28;20072;-68
2021/09/07 10:44:34;;;;;;;3.33;2.70;;;16.90;99.90;;;;;;4988902;28;20182;-70
2021/09/07 10:47:12;;;;;;;6.47;3.42;;;16.90;99.90;;;;;;4988587;28;20047;-69
2021/09/07 10:49:46;;;;;;;3.35;3.05;;;17.10;99.90;;;;;;4989686;28;20054;-70
2021/09/07 10:52:18;;;;;;;6.28;3.47;;;17.10;99.90;;;;;;4990123;28;20054;-70
2021/09/07 10:54:55;;;;;;;5.03;3.42;;;17.10;99.90;;;;;;4987737;28;20116;-69
2021/09/07 10:57:34;;;;;;;4.40;2.53;;;17.20;99.90;;;;;;4990126;28;20054;-66
2021/09/07 11:00:13;;;;;;;3.30;2.95;;;17.30;99.90;;;;;;4989790;28;20066;-71
2021/09/07 11:02:42;;;;;;;3.90;2.33;;;17.50;99.90;;;;;;4988137;28;20067;-68
2021/09/07 11:05:36;;;;;;;3.20;2.28;;;17.70;99.90;;;;;;4989373;28;20532;-68
2021/09/07 11:08:05;;;;;;;3.75;3.10;;;17.80;99.90;;;;;;4983449;28;20077;-68
2021/09/07 11:10:34;;;;;;;5.10;3.92;;;17.90;99.90;;;;;;4987961;28;20074;-69
2021/09/07 11:13:10;;;;;;;2.38;1.83;;;17.90;99.90;;;;;;4989396;28;20566;-66
2021/09/07 11:15:43;;;;;;;4.55;2.95;;;18.00;99.90;;;;;;4989147;28;20050;-69
2021/09/07 11:18:24;;;;;;;3.83;2.83;;;18.10;99.90;;;;;;4989389;28;20046;-68
2021/09/07 11:20:52;;;;;;;2.72;2.50;;;18.00;99.90;;;;;;4988189;28;20154;-66
2021/09/07 11:23:30;;;;;;;3.25;2.60;;;18.10;99.90;;;;;;4989287;28;20432;-70
2021/09/07 11:26:06;;;;;;;3.67;3.03;;;18.20;99.90;;;;;;4982423;28;20089;-70
2021/09/07 11:28:34;;;;;;;3.17;2.97;;;18.10;99.90;;;;;;4988340;28;20050;-69
2021/09/07 11:31:05;;;;;;;3.15;2.53;;;18.10;99.90;;;;;;4989563;28;20092;-69
2021/09/07 11:33:35;;;;;;;2.85;2.60;;;18.10;99.90;;;;;;4989771;28;20042;-69
2021/09/07 11:36:04;;;;;;;4.13;2.28;;;18.00;99.90;;;;;;4989791;28;20114;-66
2021/09/07 11:38:34;;;;;;;4.90;2.22;;;18.20;99.90;;;;;;4987784;28;20091;-71
2021/09/07 11:41:12;;;;;;;5.05;2.80;;;18.30;99.90;;;;;;4989673;28;20107;-68
2021/09/07 11:43:42;;;;;;;3.55;2.58;;;18.40;99.90;;;;;;4989578;28;20425;-71
2021/09/07 11:46:12;;;;;;;3.08;2.08;;;18.40;99.90;;;;;;4971432;28;20057;-73
2021/09/07 11:48:47;;;;;;;3.95;2.67;;;18.50;99.90;;;;;;4988142;28;20065;-69
2021/09/07 11:51:25;;;;;;;6.15;2.95;;;18.60;99.90;;;;;;4989291;28;20051;-71
2021/09/07 11:53:56;;;;;;;6.85;3.63;;;18.60;99.90;;;;;;4981983;28;20069;-70
2021/09/07 11:56:26;;;;;;;6.28;3.85;;;18.50;99.90;;;;;;4987507;28;20134;-69
2021/09/07 11:59:14;;;;;;;4.03;3.00;;;18.50;99.90;;;;;;4990125;28;20137;-70
2021/09/07 12:01:46;;;;;;;6.95;3.17;;;18.50;99.90;;;;;;4992802;28;20051;-72
2021/09/07 12:04:15;;;;;;;4.05;2.78;;;18.50;99.90;;;;;;4992914;28;20121;-68
2021/09/07 12:06:45;;;;;;;5.13;3.58;;;18.70;99.90;;;;;;4991274;28;20062;-68
2021/09/07 12:09:16;;;;;;;5.97;2.90;;;18.90;99.90;;;;;;4992655;28;20066;-71
2021/09/07 12:11:48;;;;;;;4.28;3.45;;;19.00;99.90;;;;;;4992512;28;20138;-70
2021/09/07 12:14:19;;;;;;;4.70;3.88;;;19.10;99.90;;;;;;4991210;28;20125;-71
2021/09/07 12:16:52;;;;;;;4.90;3.17;;;19.20;99.90;;;;;;4992632;28;20054;-71
2021/09/07 12:19:27;;;;;;;3.92;3.53;;;19.40;99.90;;;;;;4992539;28;20066;-72
2021/09/07 12:22:27;;;;;;;4.75;3.80;;;19.50;99.90;;;;;;4992861;28;20430;-70
2021/09/07 12:25:05;;;;;;;4.13;3.53;;;19.50;99.90;;;;;;4990760;28;20078;-68
2021/09/07 12:27:44;;;;;;;4.60;4.13;;;19.50;99.90;;;;;;4992378;28;20050;-67
2021/09/07 12:30:11;;;;;;;3.80;3.40;;;19.50;99.90;;;;;;4992394;28;20129;-71
2021/09/07 12:33:01;;;;;;;4.75;3.25;;;19.40;99.90;;;;;;4990433;28;20077;-68
2021/09/07 12:35:33;;;;;;;5.25;3.97;;;19.50;99.90;;;;;;4992100;28;20085;-67
2021/09/07 12:38:05;;;;;;;4.57;3.38;;;19.50;99.90;;;;;;4992012;28;20038;-69
2021/09/07 12:40:33;;;;;;;5.10;3.20;;;19.60;99.90;;;;;;4990259;28;20117;-68
2021/09/07 12:43:18;;;;;;;11.93;4.13;;;19.60;99.90;;;;;;4991857;28;20112;-69
2021/09/07 12:45:48;;;;;;;7.13;3.80;;;19.70;99.90;;;;;;4992206;28;20078;-72
2021/09/07 12:48:16;;;;;;;6.68;3.53;;;19.70;99.90;;;;;;4990415;28;20042;-67
2021/09/07 12:50:44;;;;;;;6.20;4.15;;;19.80;99.90;;;;;;4991668;28;20090;-70
2021/09/07 12:53:12;;;;;;;9.13;5.07;;;19.70;99.90;;;;;;4991867;28;20070;-70
2021/09/07 12:55:58;;;;;;;3.53;2.97;;;19.60;99.90;;;;;;4991617;28;20089;-70
2021/09/07 12:58:26;;;;;;;6.38;4.40;;;19.50;99.90;;;;;;4990065;28;20047;-69
2021/09/07 13:00:53;;;;;;;6.03;3.72;;;19.50;99.90;;;;;;4991603;28;20106;-67
2021/09/07 13:03:21;;;;;;;5.82;3.28;;;19.60;99.90;;;;;;4991223;28;20372;-68
2021/09/07 13:05:48;;;;;;;4.68;3.50;;;19.70;99.90;;;;;;4974235;28;20078;-69